createdAt,value
2022-10-24T00:01:11.462Z,81.90
2022-10-24T00:03:39.792Z,82.00
2022-10-24T00:06:10.317Z,81.90
2022-10-24T00:08:38.961Z,82.00
2022-10-24T00:11:10.681Z,82.10
2022-10-24T00:13:41.331Z,82.10
2022-10-24T00:16:09.753Z,82.00
2022-10-24T00:18:38.329Z,82.00
2022-10-24T00:21:07.475Z,81.90
2022-10-24T00:23:35.819Z,81.90
2022-10-24T00:26:04.516Z,81.80
2022-10-24T00:28:33.310Z,81.80
2022-10-24T00:31:03.090Z,81.70
2022-10-24T00:33:31.370Z,81.70
2022-10-24T00:35:59.674Z,81.60
2022-10-24T00:38:27.877Z,81.60
2022-10-24T00:40:56.038Z,81.50
2022-10-24T00:43:26.329Z,81.50
2022-10-24T00:45:56.252Z,81.40
2022-10-24T00:48:29.313Z,81.40
2022-10-24T00:51:00.128Z,81.50
2022-10-24T00:53:30.506Z,81.50
2022-10-24T00:56:01.029Z,81.60
2022-10-24T00:58:32.335Z,81.70
2022-10-24T01:01:01.020Z,81.80
2022-10-24T01:03:30.705Z,81.90
2022-10-24T01:06:14.267Z,81.90
2022-10-24T01:08:48.617Z,82.00
2022-10-24T01:11:30.036Z,82.00
2022-10-24T01:14:04.179Z,82.10
2022-10-24T01:16:39.121Z,81.90
2022-10-24T01:19:21.943Z,82.00
2022-10-24T01:21:55.022Z,82.00
2022-10-24T01:24:39.578Z,81.80
2022-10-24T01:27:39.948Z,81.90
2022-10-24T01:30:11.337Z,81.80
2022-10-24T01:32:54.563Z,82.50
2022-10-24T01:35:40.270Z,81.80
2022-10-24T01:38:17.547Z,82.40
2022-10-24T01:40:52.564Z,81.70
2022-10-24T01:43:25.977Z,81.70
2022-10-24T01:46:01.987Z,81.80
2022-10-24T01:48:34.256Z,81.80
2022-10-24T01:51:04.392Z,81.80
2022-10-24T01:53:33.214Z,81.60
2022-10-24T01:56:01.987Z,81.60
2022-10-24T01:58:30.149Z,81.60
2022-10-24T02:01:04.316Z,82.30
2022-10-24T02:03:36.130Z,81.60
2022-10-24T02:06:09.498Z,81.60
2022-10-24T02:08:42.713Z,81.60
2022-10-24T02:11:11.686Z,81.60
2022-10-24T02:13:46.280Z,81.50
2022-10-24T02:16:18.872Z,81.70
2022-10-24T02:18:48.181Z,81.80
2022-10-24T02:21:27.742Z,81.70
2022-10-24T02:24:01.445Z,81.80
2022-10-24T02:26:35.930Z,81.70
2022-10-24T02:29:09.601Z,81.60
2022-10-24T02:31:44.441Z,81.50
2022-10-24T02:34:13.975Z,81.50
2022-10-24T02:36:44.317Z,81.40
2022-10-24T02:39:13.778Z,81.50
2022-10-24T02:41:44.567Z,81.50
2022-10-24T02:44:16.464Z,81.50
2022-10-24T02:46:47.540Z,81.60
2022-10-24T02:49:15.851Z,81.60
2022-10-24T02:51:46.049Z,81.30
2022-10-24T02:54:14.661Z,81.50
2022-10-24T02:56:47.256Z,81.60
2022-10-24T02:59:15.435Z,81.70
2022-10-24T03:01:45.131Z,82.30
2022-10-24T03:04:13.385Z,81.60
2022-10-24T03:06:42.749Z,81.60
2022-10-24T03:09:11.003Z,81.60
2022-10-24T03:11:39.297Z,81.50
2022-10-24T03:14:07.530Z,81.60
2022-10-24T03:16:35.758Z,81.60
2022-10-24T03:19:05.370Z,81.60
2022-10-24T03:21:33.539Z,81.50
2022-10-24T03:24:01.857Z,81.50
2022-10-24T03:26:30.620Z,81.50
2022-10-24T03:28:58.785Z,81.50
2022-10-24T03:31:27.343Z,81.50
2022-10-24T03:33:55.490Z,81.40
2022-10-24T03:36:25.074Z,81.30
2022-10-24T03:38:53.282Z,81.30
2022-10-24T03:41:21.445Z,81.30
2022-10-24T03:43:49.626Z,81.20
2022-10-24T03:46:17.793Z,81.20
2022-10-24T03:48:46.032Z,81.20
2022-10-24T03:51:14.222Z,81.20
2022-10-24T03:53:43.824Z,81.20
2022-10-24T03:56:12.154Z,81.10
2022-10-24T03:58:40.322Z,81.10
2022-10-24T04:01:10.235Z,81.10
2022-10-24T04:03:38.485Z,81.10
2022-10-24T04:06:06.959Z,81.10
2022-10-24T04:08:35.106Z,81.10
2022-10-24T04:11:05.219Z,81.10
2022-10-24T04:13:33.647Z,81.10
2022-10-24T04:16:01.838Z,81.00
2022-10-24T04:18:30.218Z,81.00
2022-10-24T04:20:58.408Z,81.00
2022-10-24T04:23:27.289Z,81.00
2022-10-24T04:25:55.517Z,81.00
2022-10-24T04:28:25.085Z,81.00
2022-10-24T04:30:56.410Z,81.00
2022-10-24T04:33:24.976Z,81.00
2022-10-24T04:35:53.623Z,81.00
2022-10-24T04:38:22.220Z,81.00
2022-10-24T04:40:52.466Z,80.90
2022-10-24T04:43:21.669Z,80.90
2022-10-24T04:45:51.286Z,80.90
2022-10-24T04:48:19.685Z,80.80
2022-10-24T04:50:48.643Z,80.80
2022-10-24T04:53:17.220Z,80.80
2022-10-24T04:55:46.241Z,80.70
2022-10-24T04:58:14.452Z,80.70
2022-10-24T05:00:46.618Z,80.60
2022-10-24T05:03:16.322Z,80.60
2022-10-24T05:05:44.756Z,80.70
2022-10-24T05:08:13.300Z,80.60
2022-10-24T05:10:41.494Z,80.80
2022-10-24T05:13:10.197Z,80.70
2022-10-24T05:15:38.557Z,80.80
2022-10-24T05:18:06.999Z,80.80
2022-10-24T05:20:36.830Z,80.80
2022-10-24T05:23:05.095Z,80.80
2022-10-24T05:25:33.332Z,80.80
2022-10-24T05:28:01.509Z,80.70
2022-10-24T05:30:29.735Z,80.70
2022-10-24T05:32:57.951Z,80.60
2022-10-24T05:35:26.102Z,80.40
2022-10-24T05:37:55.639Z,80.50
2022-10-24T05:40:23.833Z,80.30
2022-10-24T05:42:52.320Z,80.30
2022-10-24T05:45:21.101Z,80.30
2022-10-24T05:47:49.285Z,80.30
2022-10-24T05:50:17.622Z,80.20
2022-10-24T05:52:47.194Z,80.20
2022-10-24T05:55:18.355Z,80.20
2022-10-24T05:57:47.580Z,80.10
2022-10-24T06:00:18.227Z,80.10
2022-10-24T06:05:21.175Z,80.10
2022-10-24T06:07:49.750Z,80.00
2022-10-24T06:10:19.439Z,79.90
2022-10-24T06:12:47.809Z,79.90
2022-10-24T06:15:16.242Z,79.80
2022-10-24T06:17:44.482Z,79.80
2022-10-24T06:20:12.778Z,79.70
2022-10-24T06:22:42.342Z,79.80
2022-10-24T06:25:11.298Z,80.40
2022-10-24T06:27:41.239Z,79.70
2022-10-24T06:30:11.896Z,79.60
2022-10-24T06:32:43.593Z,79.60
2022-10-24T06:35:14.842Z,79.60
2022-10-24T06:37:45.857Z,79.60
2022-10-24T06:40:16.454Z,79.60
2022-10-24T06:42:46.362Z,79.60
2022-10-24T06:45:15.243Z,79.60
2022-10-24T06:47:43.636Z,79.60
2022-10-24T06:50:12.050Z,79.60
2022-10-24T06:52:40.226Z,79.60
2022-10-24T06:55:09.179Z,79.50
2022-10-24T06:57:37.411Z,79.40
2022-10-24T07:00:09.034Z,79.40
2022-10-24T07:02:37.481Z,79.40
2022-10-24T07:05:08.887Z,79.40
2022-10-24T07:07:37.076Z,79.40
2022-10-24T07:10:05.729Z,79.40
2022-10-24T07:12:34.112Z,79.40
2022-10-24T07:15:03.559Z,79.40
2022-10-24T07:17:33.949Z,79.30
2022-10-24T07:20:02.143Z,79.30
2022-10-24T07:22:32.633Z,79.20
2022-10-24T07:25:01.660Z,79.20
2022-10-24T07:27:29.840Z,79.10
2022-10-24T07:30:00.466Z,79.00
2022-10-24T07:32:32.765Z,79.00
2022-10-24T07:35:01.026Z,79.00
2022-10-24T07:37:29.212Z,79.00
2022-10-24T07:39:57.390Z,78.90
2022-10-24T07:42:25.564Z,78.70
2022-10-24T07:44:53.784Z,78.70
2022-10-24T07:47:22.024Z,78.60
2022-10-24T07:49:51.738Z,78.50
2022-10-24T07:52:19.928Z,78.40
2022-10-24T07:54:48.103Z,78.40
2022-10-24T07:57:16.314Z,78.50
2022-10-24T07:59:44.475Z,78.40
2022-10-24T08:02:13.663Z,78.50
2022-10-24T08:04:42.359Z,78.50
2022-10-24T08:07:13.663Z,78.50
2022-10-24T08:09:44.036Z,78.50
2022-10-24T08:12:12.559Z,78.60
2022-10-24T08:14:42.238Z,78.50
2022-10-24T08:17:11.143Z,78.40
2022-10-24T08:19:43.791Z,78.30
2022-10-24T08:22:14.181Z,78.30
2022-10-24T08:24:43.981Z,78.30
2022-10-24T08:27:12.184Z,78.20
2022-10-24T08:29:40.455Z,78.20
2022-10-24T08:32:08.849Z,78.10
2022-10-24T08:34:38.780Z,78.00
2022-10-24T08:37:06.940Z,77.80
2022-10-24T08:39:36.725Z,77.70
2022-10-24T08:42:07.151Z,77.50
2022-10-24T08:44:39.834Z,77.50
2022-10-24T08:47:16.455Z,77.40
2022-10-24T08:49:51.117Z,77.30
2022-10-24T08:52:27.578Z,77.20
2022-10-24T08:55:02.032Z,77.00
2022-10-24T09:00:17.867Z,77.10
2022-10-24T09:02:51.385Z,76.70
2022-10-24T09:05:24.214Z,76.70
2022-10-24T09:07:58.104Z,76.60
2022-10-24T09:10:36.515Z,76.50
2022-10-24T09:13:09.370Z,76.40
2022-10-24T09:15:38.061Z,76.50
2022-10-24T09:18:17.283Z,76.40
2022-10-24T09:20:45.464Z,76.20
2022-10-24T09:23:15.746Z,76.30
2022-10-24T09:25:49.318Z,76.20
2022-10-24T09:28:18.319Z,76.20
2022-10-24T09:30:47.154Z,76.40
2022-10-24T09:33:25.875Z,76.40
2022-10-24T09:35:56.687Z,76.10
2022-10-24T09:38:33.487Z,76.20
2022-10-24T09:41:05.557Z,76.10
2022-10-24T09:43:38.596Z,76.10
2022-10-24T09:46:10.975Z,76.80
2022-10-24T09:48:50.767Z,75.80
2022-10-24T09:51:25.794Z,76.00
2022-10-24T09:54:07.701Z,76.00
2022-10-24T09:56:42.834Z,75.60
2022-10-24T09:59:35.760Z,75.60
2022-10-24T10:02:24.624Z,75.40
2022-10-24T10:05:22.921Z,75.40
2022-10-24T10:07:52.907Z,75.50
2022-10-24T10:10:33.909Z,75.60
2022-10-24T10:13:07.758Z,75.40
2022-10-24T10:15:39.210Z,75.40
2022-10-24T10:18:24.863Z,75.20
2022-10-24T10:21:02.179Z,75.10
2022-10-24T10:23:32.928Z,75.10
2022-10-24T10:26:14.101Z,75.10
2022-10-24T10:28:52.974Z,74.90
2022-10-24T10:31:23.785Z,75.10
2022-10-24T10:34:04.114Z,75.10
2022-10-24T10:36:36.250Z,75.00
2022-10-24T10:39:23.366Z,75.20
2022-10-24T10:41:58.754Z,75.20
2022-10-24T10:44:44.527Z,75.20
2022-10-24T10:47:27.549Z,74.90
2022-10-24T10:49:59.297Z,75.10
2022-10-24T10:52:32.454Z,75.10
2022-10-24T10:55:32.205Z,75.10
2022-10-24T10:58:09.822Z,75.10
2022-10-24T11:00:50.274Z,74.50
2022-10-24T11:03:35.155Z,74.20
2022-10-24T11:06:19.651Z,74.10
2022-10-24T11:09:17.145Z,74.00
2022-10-24T11:11:50.354Z,73.60
2022-10-24T11:14:29.267Z,73.60
2022-10-24T11:17:04.242Z,73.50
2022-10-24T11:19:45.885Z,73.50
2022-10-24T11:22:21.422Z,73.20
2022-10-24T11:24:57.517Z,73.40
2022-10-24T11:27:31.086Z,73.30
2022-10-24T11:30:05.224Z,73.50
2022-10-24T11:32:41.848Z,73.10
2022-10-24T11:35:23.394Z,73.00
2022-10-24T11:37:57.271Z,72.70
2022-10-24T11:43:05.076Z,72.90
2022-10-24T11:45:40.363Z,72.80
2022-10-24T11:48:17.408Z,72.90
2022-10-24T11:50:51.057Z,72.70
2022-10-24T11:53:40.582Z,72.70
2022-10-24T11:56:18.037Z,72.30
2022-10-24T11:58:54.295Z,71.00
2022-10-24T12:01:52.641Z,71.20
2022-10-24T12:04:51.854Z,71.00
2022-10-24T12:07:49.698Z,71.40
2022-10-24T12:10:38.813Z,70.90
2022-10-24T12:13:28.522Z,70.50
2022-10-24T12:16:06.286Z,70.50
2022-10-24T12:18:39.196Z,70.40
2022-10-24T12:21:12.038Z,69.70
2022-10-24T12:23:42.373Z,68.50
2022-10-24T12:26:19.719Z,68.10
2022-10-24T12:28:56.089Z,67.40
2022-10-24T12:31:29.531Z,67.10
2022-10-24T12:34:49.302Z,66.10
2022-10-24T12:37:36.681Z,65.20
2022-10-24T12:40:48.931Z,64.90
2022-10-24T12:43:29.123Z,64.80
2022-10-24T12:46:00.223Z,64.60
2022-10-24T12:48:33.283Z,64.30
2022-10-24T12:51:07.335Z,63.70
2022-10-24T12:54:14.151Z,63.70
2022-10-24T12:57:24.248Z,63.30
2022-10-24T12:59:56.124Z,62.70
2022-10-24T13:02:49.147Z,62.00
2022-10-24T13:05:37.895Z,61.40
2022-10-24T13:08:19.217Z,61.10
2022-10-24T13:10:58.853Z,60.70
2022-10-24T13:13:49.998Z,60.30
2022-10-24T13:16:32.714Z,60.00
2022-10-24T13:19:15.625Z,60.00
2022-10-24T13:21:49.356Z,60.20
2022-10-24T13:24:26.179Z,60.10
2022-10-24T13:27:23.131Z,59.60
2022-10-24T13:30:25.568Z,59.40
2022-10-24T13:33:33.590Z,59.20
2022-10-24T13:36:16.310Z,59.10
2022-10-24T13:38:50.430Z,59.10
2022-10-24T13:41:27.961Z,58.80
2022-10-24T13:44:00.316Z,58.70
2022-10-24T13:46:33.073Z,58.80
2022-10-24T13:49:04.436Z,59.10
2022-10-24T13:51:41.922Z,59.10
2022-10-24T13:54:16.147Z,58.90
2022-10-24T13:56:46.774Z,58.30
2022-10-24T13:59:32.277Z,58.20
2022-10-24T14:02:04.019Z,57.70
2022-10-24T14:04:35.118Z,58.10
2022-10-24T14:07:05.896Z,59.60
2022-10-24T14:09:41.395Z,58.60
2022-10-24T14:12:19.502Z,57.90
2022-10-24T14:14:50.690Z,58.00
2022-10-24T14:17:23.762Z,58.10
2022-10-24T14:19:56.320Z,58.40
2022-10-24T14:22:28.049Z,58.10
2022-10-24T14:24:56.108Z,57.90
2022-10-24T14:27:24.877Z,59.30
2022-10-24T14:29:55.688Z,58.30
2022-10-24T14:32:25.031Z,58.00
2022-10-24T14:34:55.321Z,58.00
2022-10-24T14:37:29.488Z,57.60
2022-10-24T14:39:58.492Z,57.30
2022-10-24T14:42:27.575Z,57.40
2022-10-24T14:44:58.436Z,57.70
2022-10-24T14:47:30.940Z,57.50
2022-10-24T14:50:00.773Z,57.50
2022-10-24T14:52:36.907Z,57.50
2022-10-24T14:55:08.626Z,57.50
2022-10-24T14:57:38.015Z,57.40
2022-10-24T15:00:09.124Z,57.60
2022-10-24T15:02:42.893Z,57.60
2022-10-24T15:05:30.975Z,57.40
2022-10-24T15:08:21.116Z,57.50
2022-10-24T15:10:50.171Z,57.50
2022-10-24T15:13:21.594Z,57.60
2022-10-24T15:15:52.990Z,57.80
2022-10-24T15:18:23.651Z,57.60
2022-10-24T15:20:55.434Z,57.80
2022-10-24T15:23:26.830Z,57.90
2022-10-24T15:26:09.671Z,58.90
2022-10-24T15:28:45.808Z,57.90
2022-10-24T15:31:15.058Z,58.00
2022-10-24T15:33:43.694Z,58.30
2022-10-24T15:36:21.026Z,58.60
2022-10-24T15:38:49.675Z,58.40
2022-10-24T15:41:17.895Z,58.70
2022-10-24T15:43:46.137Z,58.70
2022-10-24T15:46:14.309Z,59.00
2022-10-24T15:48:42.504Z,59.60
2022-10-24T15:51:16.845Z,58.80
2022-10-24T15:53:45.855Z,59.10
2022-10-24T15:56:14.339Z,58.70
2022-10-24T15:58:42.874Z,58.90
2022-10-24T16:01:23.361Z,59.00
2022-10-24T16:03:51.786Z,59.40
2022-10-24T16:06:21.988Z,59.40
2022-10-24T16:08:50.245Z,59.40
2022-10-24T16:11:18.632Z,59.40
2022-10-24T16:13:46.893Z,59.30
2022-10-24T16:16:15.159Z,59.30
2022-10-24T16:18:43.466Z,59.40
2022-10-24T16:21:16.248Z,59.60
2022-10-24T16:23:46.263Z,59.60
2022-10-24T16:26:14.848Z,59.80
2022-10-24T16:28:43.148Z,59.90
2022-10-24T16:31:18.578Z,60.00
2022-10-24T16:33:46.924Z,60.60
2022-10-24T16:36:18.472Z,60.70
2022-10-24T16:38:50.544Z,60.60
2022-10-24T16:41:19.720Z,61.10
2022-10-24T16:43:50.029Z,61.30
2022-10-24T16:46:21.321Z,61.30
2022-10-24T16:48:50.249Z,61.40
2022-10-24T16:51:20.458Z,61.60
2022-10-24T16:53:50.066Z,61.70
2022-10-24T16:56:18.553Z,61.60
2022-10-24T16:58:46.947Z,61.70
2022-10-24T17:01:17.068Z,61.60
2022-10-24T17:03:46.148Z,61.60
2022-10-24T17:06:14.730Z,61.60
2022-10-24T17:08:43.380Z,61.80
2022-10-24T17:11:39.506Z,61.70
2022-10-24T17:14:01.320Z,61.80
2022-10-24T17:16:29.954Z,61.80
2022-10-24T17:19:15.181Z,61.80
2022-10-24T17:21:46.849Z,61.60
2022-10-24T17:24:16.614Z,61.60
2022-10-24T17:26:46.429Z,61.30
2022-10-24T17:29:16.321Z,61.30
2022-10-24T17:31:44.684Z,61.20
2022-10-24T17:34:13.074Z,61.10
2022-10-24T17:36:46.710Z,61.10
2022-10-24T17:39:21.076Z,61.20
2022-10-24T17:41:53.837Z,61.20
2022-10-24T17:44:22.957Z,61.00
2022-10-24T17:46:54.648Z,61.70
2022-10-24T17:49:26.654Z,61.90
2022-10-24T17:51:54.880Z,61.70
2022-10-24T17:54:23.515Z,61.70
2022-10-24T17:56:53.094Z,61.60
2022-10-24T17:59:22.510Z,61.60
2022-10-24T18:01:50.949Z,61.50
2022-10-24T18:04:19.227Z,61.30
2022-10-24T18:06:47.475Z,61.20
2022-10-24T18:09:15.654Z,61.10
2022-10-24T18:11:43.831Z,61.00
2022-10-24T18:14:13.409Z,60.90
2022-10-24T18:16:41.617Z,61.10
2022-10-24T18:19:10.598Z,60.90
2022-10-24T18:21:38.773Z,60.80
2022-10-24T18:24:08.649Z,60.90
2022-10-24T18:26:36.869Z,60.70
2022-10-24T18:29:05.659Z,61.10
2022-10-24T18:31:35.834Z,61.20
2022-10-24T18:34:06.194Z,61.00
2022-10-24T18:36:37.026Z,60.90
2022-10-24T18:39:05.854Z,61.10
2022-10-24T18:41:39.354Z,60.80
2022-10-24T18:44:28.887Z,60.70
2022-10-24T18:47:01.371Z,60.70
2022-10-24T18:49:30.400Z,60.60
2022-10-24T18:52:11.670Z,60.80
2022-10-24T18:54:45.798Z,61.10
2022-10-24T18:57:23.588Z,61.20
2022-10-24T18:59:52.217Z,61.00
2022-10-24T19:02:32.842Z,61.30
2022-10-24T19:05:13.605Z,61.20
2022-10-24T19:07:42.777Z,61.40
2022-10-24T19:10:17.754Z,61.40
2022-10-24T19:12:46.434Z,61.40
2022-10-24T19:15:16.042Z,61.60
2022-10-24T19:17:46.691Z,61.50
2022-10-24T19:20:17.922Z,61.70
2022-10-24T19:22:46.893Z,61.80
2022-10-24T19:25:16.078Z,62.10
2022-10-24T19:27:44.623Z,62.20
2022-10-24T19:30:14.125Z,62.50
2022-10-24T19:32:42.456Z,62.50
2022-10-24T19:35:12.030Z,62.50
2022-10-24T19:37:40.215Z,62.80
2022-10-24T19:40:10.049Z,62.70
2022-10-24T19:42:38.298Z,62.90
2022-10-24T19:45:07.624Z,62.80
2022-10-24T19:47:36.143Z,62.80
2022-10-24T19:50:04.646Z,63.00
2022-10-24T19:52:34.190Z,63.40
2022-10-24T19:55:02.378Z,63.30
2022-10-24T19:57:31.088Z,63.50
2022-10-24T19:59:59.283Z,63.60
2022-10-24T20:02:28.350Z,63.50
2022-10-24T20:04:56.546Z,63.50
2022-10-24T20:07:24.735Z,63.50
2022-10-24T20:09:54.286Z,63.80
2022-10-24T20:12:23.411Z,63.80
2022-10-24T20:14:51.588Z,64.00
2022-10-24T20:17:19.798Z,64.00
2022-10-24T20:19:48.050Z,64.20
2022-10-24T20:22:16.890Z,63.90
2022-10-24T20:24:45.075Z,64.00
2022-10-24T20:27:14.973Z,64.00
2022-10-24T20:29:43.159Z,64.20
2022-10-24T20:32:11.404Z,64.30
2022-10-24T20:34:39.607Z,64.20
2022-10-24T20:37:08.059Z,64.50
2022-10-24T20:39:37.486Z,64.60
2022-10-24T20:42:06.013Z,64.70
2022-10-24T20:44:35.694Z,64.80
2022-10-24T20:47:03.898Z,64.80
2022-10-24T20:49:32.118Z,65.00
2022-10-24T20:52:00.351Z,65.10
2022-10-24T20:54:28.576Z,65.00
2022-10-24T20:56:56.792Z,65.00
2022-10-24T20:59:25.147Z,65.10
2022-10-24T21:01:54.810Z,65.00
2022-10-24T21:04:23.092Z,64.90
2022-10-24T21:06:51.279Z,65.00
2022-10-24T21:09:19.483Z,65.00
2022-10-24T21:11:48.690Z,65.00
2022-10-24T21:14:20.521Z,65.30
2022-10-24T21:16:48.490Z,65.50
2022-10-24T21:19:18.102Z,65.50
2022-10-24T21:21:46.305Z,65.40
2022-10-24T21:24:16.546Z,65.60
2022-10-24T21:26:44.798Z,65.70
2022-10-24T21:29:33.216Z,65.70
2022-10-24T21:32:01.347Z,65.90
2022-10-24T21:34:34.181Z,66.00
2022-10-24T21:37:03.794Z,66.00
2022-10-24T21:39:32.397Z,66.10
2022-10-24T21:42:00.559Z,66.20
2022-10-24T21:44:29.084Z,66.20
2022-10-24T21:46:57.268Z,66.40
2022-10-24T21:49:25.731Z,66.60
2022-10-24T21:51:55.319Z,66.70
2022-10-24T21:54:25.743Z,66.70
2022-10-24T21:56:53.911Z,67.00
2022-10-24T21:59:22.659Z,66.90
2022-10-24T22:01:52.278Z,67.20
2022-10-24T22:04:20.823Z,67.10
2022-10-24T22:06:49.502Z,67.30
2022-10-24T22:09:21.217Z,67.60
2022-10-24T22:11:49.483Z,67.60
2022-10-24T22:14:18.616Z,67.60
2022-10-24T22:16:47.385Z,67.60
2022-10-24T22:19:15.758Z,67.70
2022-10-24T22:21:45.474Z,67.70
2022-10-24T22:24:16.123Z,67.90
2022-10-24T22:26:46.360Z,68.00
2022-10-24T22:29:16.566Z,68.00
2022-10-24T22:31:45.475Z,67.90
2022-10-24T22:34:17.021Z,68.00
2022-10-24T22:36:56.750Z,68.00
2022-10-24T22:39:26.848Z,67.90
2022-10-24T22:41:57.213Z,67.90
2022-10-24T22:44:25.998Z,67.80
2022-10-24T22:47:13.137Z,67.90
2022-10-24T22:49:52.281Z,67.90
2022-10-24T22:52:20.834Z,67.90
2022-10-24T22:54:49.892Z,67.80
2022-10-24T22:57:20.173Z,67.80
2022-10-24T22:59:48.866Z,67.90
2022-10-24T23:02:26.616Z,68.00
2022-10-24T23:05:03.326Z,68.10
2022-10-24T23:07:41.802Z,68.30
2022-10-24T23:10:13.947Z,68.40
2022-10-24T23:12:44.352Z,68.50
2022-10-24T23:15:14.966Z,68.60
2022-10-24T23:17:43.944Z,68.70
2022-10-24T23:20:23.890Z,68.80
2022-10-24T23:22:58.498Z,69.20
2022-10-24T23:25:38.098Z,69.00
2022-10-24T23:28:13.770Z,69.00
2022-10-24T23:30:42.422Z,69.20
2022-10-24T23:33:14.303Z,69.20
2022-10-24T23:35:42.285Z,69.20
2022-10-24T23:38:12.344Z,69.20
2022-10-24T23:40:42.442Z,69.10
2022-10-24T23:43:17.174Z,69.30
2022-10-24T23:45:51.715Z,69.30
2022-10-24T23:48:26.178Z,69.40
2022-10-24T23:51:00.914Z,69.50
2022-10-24T23:53:36.777Z,69.80
2022-10-24T23:56:05.696Z,69.80
2022-10-24T23:58:35.257Z,69.80
